Погода Зыбуновона неделю

Тверская область, Россия

19 - 25 мая
  • 19мая
    Сегодня
    +8°
    +23°
    Ясно и безоблачно
    ВремяПогодаТемператураВлажностьДавлениеВетер, м/сВероятность осадков
    00:00Ясно и безоблачно+9°C62 %749 мм2.5 м/с2 %
    03:00Ясно и безоблачно+7°C73 %749 мм2.6 м/с2 %
    06:00Ясно и безоблачно+8°C73 %749 мм2.2 м/с2 %
    09:00Ясно и безоблачно+17°C56 %750 мм1.4 м/с2 %
    12:00Ясно и безоблачно+20°C41 %749 мм1.8 м/с2 %
    15:00Ясно и безоблачно+22°C39 %748 мм2.0 м/с2 %
    18:00Ясно и безоблачно+22°C41 %747 мм2.1 м/с2 %
    21:00Ясно и безоблачно+15°C61 %746 мм2.6 м/с2 %
  • 20мая
    Понедельник
    +9°
    +23°
    Ясно и безоблачно
    ВремяПогодаТемператураВлажностьДавлениеВетер, м/сВероятность осадков
    00:00Ясно и безоблачно+12°C68 %746 мм2.5 м/с2 %
    03:00Ясно и безоблачно+9°C77 %746 мм2.9 м/с2 %
    06:00Облачно с прояснениями+10°C76 %746 мм2.4 м/с2 %
    09:00Практически безоблачно+19°C59 %747 мм2.2 м/с2 %
    12:00Практически безоблачно+22°C37 %747 мм4.3 м/с4 %
    15:00Ясно и безоблачно+23°C37 %746 мм4.4 м/с5 %
    18:00Практически безоблачно+22°C40 %746 мм3.5 м/с12 %
    21:00Практически безоблачно+17°C71 %746 мм2.0 м/с11 %
  • 21мая
    Вторник
    +6°
    +22°
    Ясно и безоблачно
    ВремяПогодаТемператураВлажностьДавлениеВетер, м/сВероятность осадков
    00:00Небольшая облачность+12°C87 %747 мм1.5 м/с2 %
    03:00Ясно и безоблачно+10°C94 %747 мм2.1 м/с6 %
    06:00Ясно и безоблачно+10°C90 %748 мм2.1 м/с9 %
    09:00Ясно и безоблачно+17°C74 %749 мм1.5 м/с9 %
    12:00Облачно с прояснениями+20°C56 %749 мм1.5 м/с16 %
    15:00Ясно и безоблачно+21°C48 %749 мм2.3 м/с15 %
    18:00Практически безоблачно+22°C46 %748 мм2.6 м/с6 %
    21:00Ясно и безоблачно+16°C53 %749 мм2.9 м/с2 %
  • 22мая
    Среда
    +4°
    +19°
    Ясно и безоблачно
    ВремяПогодаТемператураВлажностьДавлениеВетер, м/сВероятность осадков
    00:00Ясно и безоблачно+10°C66 %750 мм2.3 м/с2 %
    03:00Ясно и безоблачно+8°C67 %750 мм3.2 м/с3 %
    06:00Ясно и безоблачно+8°C65 %751 мм3.6 м/с3 %
    09:00Ясно и безоблачно+15°C51 %752 мм3.6 м/с2 %
    12:00Ясно и безоблачно+18°C38 %752 мм3.7 м/с2 %
    15:00Ясно и безоблачно+19°C36 %752 мм3.7 м/с3 %
    18:00Ясно и безоблачно+17°C38 %752 мм4.2 м/с4 %
    21:00Ясно и безоблачно+12°C44 %753 мм4.2 м/с2 %
  • 23мая
    Четверг
    +3°
    +17°
    Ясно и безоблачно
    ВремяПогодаТемператураВлажностьДавлениеВетер, м/сВероятность осадков
    00:00Ясно и безоблачно+8°C49 %754 мм3.3 м/с2 %
    03:00Ясно и безоблачно+6°C52 %755 мм3.2 м/с2 %
    06:00Ясно и безоблачно+5°C58 %756 мм3.3 м/с2 %
    09:00Ясно и безоблачно+13°C44 %757 мм3.5 м/с2 %
    12:00Ясно и безоблачно+16°C36 %757 мм3.7 м/с2 %
    15:00Ясно и безоблачно+17°C35 %756 мм3.0 м/с5 %
    18:00Ясно и безоблачно+17°C34 %755 мм2.6 м/с5 %
    21:00Ясно и безоблачно+11°C53 %756 мм2.5 м/с3 %
Мы используем cookies
Соглашаюсь